createdAt,value
2023-04-17T00:09:15.348Z,11.00
2023-04-17T00:14:20.084Z,9.02
2023-04-17T00:19:23.360Z,9.90
2023-04-17T00:24:26.528Z,9.98
2023-04-17T00:29:32.740Z,9.80
2023-04-17T00:34:35.999Z,10.60
2023-04-17T00:39:39.199Z,9.98
2023-04-17T00:44:43.835Z,9.75
2023-04-17T00:49:47.757Z,10.50
2023-04-17T00:54:51.161Z,10.90
2023-04-17T00:59:56.823Z,9.63
2023-04-17T01:05:00.134Z,9.25
2023-04-17T01:10:04.095Z,9.77
2023-04-17T01:15:09.879Z,10.07
2023-04-17T01:20:13.654Z,10.68
2023-04-17T01:25:18.655Z,10.35
2023-04-17T01:30:25.161Z,8.80
2023-04-17T01:35:39.294Z,9.88
2023-04-17T01:40:45.589Z,9.82
2023-04-17T01:45:48.865Z,11.00
2023-04-17T01:50:52.164Z,10.63
2023-04-17T01:55:56.862Z,9.18
2023-04-17T02:01:00.585Z,9.55
2023-04-17T02:06:04.316Z,9.25
2023-04-17T02:11:10.203Z,10.35
2023-04-17T02:16:14.714Z,9.85
2023-04-17T02:21:19.107Z,9.30
2023-04-17T02:26:24.326Z,10.40
2023-04-17T02:36:32.144Z,9.85
2023-04-17T02:41:37.136Z,10.97
2023-04-17T02:46:43.956Z,9.80
2023-04-17T02:51:47.601Z,9.52
2023-04-17T02:56:53.100Z,10.02
2023-04-17T03:01:59.716Z,9.88
2023-04-17T03:07:04.047Z,9.98
2023-04-17T03:12:09.121Z,12.60
2023-04-17T03:17:14.553Z,8.52
2023-04-17T03:22:18.401Z,9.85
2023-04-17T03:27:24.889Z,11.18
2023-04-17T03:32:30.543Z,9.95
2023-04-17T03:37:33.824Z,10.45
2023-04-17T03:42:39.092Z,10.73
2023-04-17T03:47:42.718Z,11.95
2023-04-17T03:52:46.609Z,10.82
2023-04-17T03:57:52.068Z,11.70
2023-04-17T04:02:56.771Z,9.82
2023-04-17T04:08:05.105Z,11.25
2023-04-17T04:13:16.694Z,9.48
2023-04-17T04:18:26.692Z,10.65
2023-04-17T04:23:30.730Z,11.63
2023-04-17T04:28:35.928Z,13.20
2023-04-17T04:33:39.493Z,11.02
2023-04-17T04:38:43.663Z,12.90
2023-04-17T04:43:57.980Z,13.30
2023-04-17T04:49:01.394Z,13.30
2023-04-17T04:54:04.914Z,12.40
2023-04-17T04:59:13.286Z,13.73
2023-04-17T05:04:22.788Z,13.98
2023-04-17T05:09:31.589Z,14.95
2023-04-17T05:14:36.768Z,12.90
2023-04-17T05:19:40.231Z,14.27
2023-04-17T05:24:46.027Z,15.45
2023-04-17T05:29:50.921Z,16.40
2023-04-17T05:34:56.818Z,16.30
2023-04-17T05:40:07.209Z,16.48
2023-04-17T05:45:14.607Z,17.50
2023-04-17T05:50:18.195Z,16.17
2023-04-17T05:55:22.073Z,18.13
2023-04-17T06:00:31.238Z,14.85
2023-04-17T06:05:40.216Z,16.45
2023-04-17T06:10:45.775Z,15.85
2023-04-17T06:15:51.765Z,16.63
2023-04-17T06:20:56.152Z,17.23
2023-04-17T06:25:59.519Z,16.33
2023-04-17T06:31:04.291Z,15.05
2023-04-17T06:36:08.121Z,15.75
2023-04-17T06:41:18.958Z,14.52
2023-04-17T06:46:23.679Z,14.75
2023-04-17T06:51:28.724Z,13.55
2023-04-17T07:01:38.194Z,12.85
2023-04-17T07:06:41.869Z,14.73
2023-04-17T07:11:45.190Z,12.73
2023-04-17T07:16:49.971Z,12.05
2023-04-17T07:21:53.262Z,10.32
2023-04-17T07:26:57.101Z,10.48
2023-04-17T07:32:04.167Z,9.98
2023-04-17T07:37:07.920Z,10.52
2023-04-17T07:42:11.493Z,9.68
2023-04-17T07:47:16.632Z,10.70
2023-04-17T07:57:26.401Z,10.70
2023-04-17T08:02:31.064Z,9.05
2023-04-17T08:07:34.395Z,9.02
2023-04-17T08:12:37.876Z,10.70
2023-04-17T08:17:43.386Z,9.18
2023-04-17T08:22:46.924Z,9.48
2023-04-17T08:27:50.611Z,9.10
2023-04-17T08:32:57.437Z,8.95
2023-04-17T08:38:00.828Z,9.57
2023-04-17T08:43:05.309Z,8.30
2023-04-17T08:48:10.097Z,8.20
2023-04-17T08:53:13.296Z,7.93
2023-04-17T08:58:18.334Z,8.57
2023-04-17T09:03:23.172Z,7.40
2023-04-17T09:08:29.196Z,7.60
2023-04-17T09:13:40.229Z,6.90
2023-04-17T09:18:46.644Z,6.97
2023-04-17T09:23:52.438Z,7.55
2023-04-17T09:29:08.790Z,7.38
2023-04-17T09:34:14.401Z,7.63
2023-04-17T09:39:20.846Z,7.18
2023-04-17T09:44:26.952Z,7.30
2023-04-17T09:49:34.145Z,7.80
2023-04-17T09:54:39.449Z,7.18
2023-04-17T09:59:45.735Z,5.95
2023-04-17T10:04:50.360Z,6.80
2023-04-17T10:09:55.062Z,6.65
2023-04-17T10:14:58.664Z,7.20
2023-04-17T10:20:35.772Z,7.00
2023-04-17T10:25:39.141Z,6.45
2023-04-17T10:30:54.819Z,6.75
2023-04-17T10:36:00.180Z,7.80
2023-04-17T10:41:09.069Z,6.63
2023-04-17T10:46:14.206Z,6.68
2023-04-17T10:51:41.939Z,7.45
2023-04-17T10:56:49.307Z,8.25
2023-04-17T11:02:01.590Z,7.07
2023-04-17T11:07:07.242Z,6.40
2023-04-17T11:12:12.477Z,6.68
2023-04-17T11:22:22.144Z,7.13
2023-04-17T11:27:25.597Z,6.68
2023-04-17T11:32:36.412Z,6.75
2023-04-17T11:38:06.659Z,7.07
2023-04-17T11:43:11.006Z,7.07
2023-04-17T11:48:16.125Z,6.87
2023-04-17T11:53:20.945Z,6.90
2023-04-17T11:58:24.713Z,6.97
2023-04-17T12:03:33.972Z,7.35
2023-04-17T12:08:47.376Z,6.85
2023-04-17T12:13:50.950Z,6.18
2023-04-17T12:18:55.309Z,6.70
2023-04-17T12:23:59.921Z,7.82
2023-04-17T12:29:03.491Z,7.57
2023-04-17T12:34:06.804Z,7.57
2023-04-17T12:39:13.068Z,8.27
2023-04-17T12:44:16.889Z,7.32
2023-04-17T12:49:20.599Z,7.45
2023-04-17T12:54:25.533Z,9.52
2023-04-17T12:59:28.818Z,8.98
2023-04-17T13:04:32.937Z,8.77
2023-04-17T13:09:37.855Z,7.88
2023-04-17T13:14:41.847Z,9.63
2023-04-17T13:19:45.320Z,7.85
2023-04-17T13:24:50.327Z,7.53
2023-04-17T13:29:54.976Z,7.65
2023-04-17T13:34:58.856Z,7.43
2023-04-17T13:40:05.532Z,7.78
2023-04-17T13:45:10.030Z,8.13
2023-04-17T13:50:14.252Z,7.80
2023-04-17T13:55:19.258Z,8.27
2023-04-17T14:00:23.208Z,8.75
2023-04-17T14:05:26.614Z,8.57
2023-04-17T14:10:31.265Z,7.40
2023-04-17T14:15:35.280Z,7.13
2023-04-17T14:20:39.092Z,7.57
2023-04-17T14:25:44.229Z,8.23
2023-04-17T14:30:47.634Z,8.82
2023-04-17T14:35:53.510Z,8.75
2023-04-17T14:40:58.301Z,7.43
2023-04-17T14:46:01.725Z,8.57
2023-04-17T14:51:06.018Z,7.68
2023-04-17T14:56:11.001Z,8.18
2023-04-17T15:01:14.472Z,6.95
2023-04-17T15:06:18.906Z,6.97
2023-04-17T15:11:23.576Z,7.40
2023-04-17T15:16:27.024Z,7.60
2023-04-17T15:21:31.149Z,7.50
2023-04-17T15:26:36.155Z,7.35
2023-04-17T15:31:40.340Z,6.90
2023-04-17T15:36:43.769Z,5.55
2023-04-17T15:41:48.747Z,6.72
2023-04-17T15:46:52.546Z,5.70
2023-04-17T15:51:56.045Z,6.15
2023-04-17T15:57:00.985Z,6.55
2023-04-17T16:02:04.872Z,6.13
2023-04-17T16:07:08.390Z,5.68
2023-04-17T16:12:13.087Z,5.60
2023-04-17T16:17:16.444Z,5.25
2023-04-17T16:22:19.782Z,5.47
2023-04-17T16:27:25.784Z,6.10
2023-04-17T16:32:29.214Z,6.85
2023-04-17T16:37:32.482Z,7.68
2023-04-17T16:42:37.371Z,7.97
2023-04-17T16:47:41.147Z,6.93
2023-04-17T16:52:44.486Z,7.65
2023-04-17T16:57:50.340Z,6.78
2023-04-17T17:07:57.028Z,7.13
2023-04-17T17:13:01.920Z,7.32
2023-04-17T17:18:06.149Z,6.95
2023-04-17T17:23:09.541Z,8.27
2023-04-17T17:28:14.350Z,8.73
2023-04-17T17:33:18.251Z,7.22
2023-04-17T17:38:21.585Z,8.98
2023-04-17T17:43:28.081Z,7.70
2023-04-17T17:48:31.453Z,8.63
2023-04-17T17:53:34.878Z,8.70
2023-04-17T17:58:39.471Z,9.40
2023-04-17T18:03:43.443Z,9.32
2023-04-17T18:08:46.962Z,9.35
2023-04-17T18:13:51.717Z,8.45
2023-04-17T18:18:56.585Z,9.73
2023-04-17T18:24:00.451Z,9.80
2023-04-17T18:29:05.850Z,10.90
2023-04-17T18:34:09.368Z,10.82
2023-04-17T18:39:15.524Z,10.57
2023-04-17T18:44:22.347Z,12.00
2023-04-17T18:49:27.562Z,10.70
2023-04-17T18:54:31.086Z,11.95
2023-04-17T18:59:35.827Z,9.85
2023-04-17T19:04:39.102Z,11.02
2023-04-17T19:09:42.480Z,11.80
2023-04-17T19:14:47.134Z,10.65
2023-04-17T19:19:50.654Z,10.27
2023-04-17T19:24:53.927Z,10.80
2023-04-17T19:29:58.649Z,10.27
2023-04-17T19:35:02.006Z,10.35
2023-04-17T19:40:21.306Z,11.32
2023-04-17T19:45:32.344Z,11.02
2023-04-17T19:50:36.127Z,11.80
2023-04-17T19:55:41.578Z,10.68
2023-04-17T20:00:46.600Z,11.00
2023-04-17T20:05:50.541Z,11.00
2023-04-17T20:10:53.986Z,11.00
2023-04-17T20:15:58.790Z,11.45
2023-04-17T20:21:06.564Z,10.32
2023-04-17T20:26:10.717Z,11.23
2023-04-17T20:31:15.840Z,10.77
2023-04-17T20:36:21.352Z,11.52
2023-04-17T20:41:24.666Z,11.77
2023-04-17T20:46:29.522Z,11.50
2023-04-17T20:51:32.933Z,10.63
2023-04-17T20:56:36.288Z,11.98
2023-04-17T21:01:40.952Z,10.70
2023-04-17T21:06:44.326Z,10.70
2023-04-17T21:11:47.921Z,12.00
2023-04-17T21:16:54.887Z,10.25
2023-04-17T21:21:58.673Z,11.75
2023-04-17T21:27:02.529Z,10.48
2023-04-17T21:32:07.417Z,12.98
2023-04-17T21:37:10.748Z,11.05
2023-04-17T21:42:14.081Z,12.23
2023-04-17T21:47:19.678Z,11.93
2023-04-17T21:57:27.137Z,10.95
2023-04-17T22:02:31.856Z,12.32
2023-04-17T22:07:47.223Z,12.27
2023-04-17T22:12:57.747Z,12.05
2023-04-17T22:18:02.477Z,12.75
2023-04-17T22:23:06.978Z,10.90
2023-04-17T22:28:10.622Z,10.55
2023-04-17T22:33:15.677Z,11.48
2023-04-17T22:43:24.304Z,11.15
2023-04-17T22:48:28.988Z,9.95
2023-04-17T22:53:32.687Z,10.48
2023-04-17T22:58:36.563Z,10.32
2023-04-17T23:03:41.769Z,9.02
2023-04-17T23:08:45.272Z,10.23
2023-04-17T23:13:48.616Z,11.50
2023-04-17T23:18:53.468Z,10.88
2023-04-17T23:23:56.702Z,12.15
2023-04-17T23:28:59.969Z,10.30
2023-04-17T23:34:05.236Z,8.88
2023-04-17T23:44:11.901Z,9.95
2023-04-17T23:49:16.678Z,9.75
2023-04-17T23:54:20.260Z,10.00
2023-04-17T23:59:23.571Z,10.20
